Time;durP1;ratioP1;P1;durP2;ratioP2;P2;SDS_P1;SDS_P2;PMS_P1;PMS_P2;Temp;Humidity;BMP_temperature;BMP_pressure;BME280_temperature;BME280_humidity;BME280_pressure;Samples;Min_cycle;Max_cycle;Signal;HPM_P1;HPM_P2
2022/06/29 00:12:03;;;;;;;6.25;4.53;;;;;;;20.11;65.48;100425.06;30869769;28;96794;-69
2022/06/29 00:27:04;;;;;;;6.50;4.63;;;;;;;19.73;66.97;100403.69;30865256;28;97554;-66
2022/06/29 00:42:04;;;;;;;9.27;4.67;;;;;;;19.44;68.16;100371.78;30865008;28;96773;-65
2022/06/29 00:57:08;;;;;;;6.65;4.70;;;;;;;19.30;69.18;100385.66;30863050;28;97513;-69
2022/06/29 01:12:09;;;;;;;6.87;4.10;;;;;;;19.27;69.49;100376.09;30861839;28;97550;-69
2022/06/29 01:27:10;;;;;;;6.93;4.20;;;;;;;19.26;70.36;100401.50;30860119;28;96780;-65
2022/06/29 01:42:10;;;;;;;6.28;4.20;;;;;;;19.30;70.18;100418.06;30858494;28;96764;-66
2022/06/29 01:57:10;;;;;;;5.95;3.83;;;;;;;19.27;70.53;100430.97;30858151;28;97125;-65
2022/06/29 02:12:11;;;;;;;5.82;3.60;;;;;;;19.26;70.96;100415.81;30857257;28;97231;-64
2022/06/29 02:27:11;;;;;;;7.03;4.88;;;;;;;19.23;70.98;100397.34;30856118;28;96835;-64
2022/06/29 02:42:13;;;;;;;6.97;5.47;;;;;;;19.22;71.11;100386.78;30858325;28;96706;-67
2022/06/29 02:57:13;;;;;;;8.30;6.07;;;;;;;19.21;71.29;100388.63;30875404;28;96653;-69
2022/06/29 03:12:14;;;;;;;7.28;6.15;;;;;;;19.15;71.52;100377.88;30872553;28;97191;-65
2022/06/29 03:27:14;;;;;;;9.98;6.63;;;;;;;19.14;71.80;100379.78;30871318;28;97398;-74
2022/06/29 03:42:14;;;;;;;9.20;6.88;;;;;;;19.17;72.09;100390.13;30868173;28;109381;-68
2022/06/29 03:57:15;;;;;;;11.13;8.45;;;;;;;19.25;72.20;100381.75;30866587;28;97286;-66
2022/06/29 04:12:15;;;;;;;12.30;7.72;;;;;;;19.32;72.37;100388.97;30866218;28;96754;-68
2022/06/29 04:27:16;;;;;;;9.48;7.20;;;;;;;19.39;72.21;100370.81;30862493;28;97499;-66
2022/06/29 04:42:17;;;;;;;11.37;8.00;;;;;;;19.53;72.37;100369.63;30860912;28;96853;-67
2022/06/29 04:57:17;;;;;;;10.85;8.32;;;;;;;19.69;72.00;100380.88;30859725;28;97264;-66
2022/06/29 05:12:17;;;;;;;14.35;10.02;;;;;;;19.90;71.80;100377.72;30858675;28;96844;-69
2022/06/29 05:27:18;;;;;;;10.77;8.63;;;;;;;20.47;71.28;100392.75;30856031;28;97525;-64
2022/06/29 05:42:18;;;;;;;10.38;7.60;;;;;;;20.83;70.45;100385.59;30855673;28;97464;-68
2022/06/29 05:57:21;;;;;;;10.10;8.25;;;;;;;21.44;69.27;100366.38;30856276;28;96776;-67
2022/06/29 06:12:22;;;;;;;13.53;9.47;;;;;;;22.34;68.25;100355.13;30853303;28;97118;-65
2022/06/29 06:27:22;;;;;;;14.17;9.37;;;;;;;22.98;66.26;100339.34;30851447;28;97065;-65
2022/06/29 06:42:22;;;;;;;10.67;7.87;;;;;;;23.90;64.62;100327.25;30850886;28;96856;-73
2022/06/29 06:57:23;;;;;;;;;;;;;;;24.07;62.89;100313.53;30848595;28;106894;-71
2022/06/29 07:12:23;;;;;;;11.80;8.47;;;;;;;24.69;61.42;100330.41;30872835;28;97015;-68
2022/06/29 07:27:23;;;;;;;9.00;7.82;;;;;;;26.11;58.25;100323.22;30845552;28;97003;-74
2022/06/29 07:42:24;;;;;;;9.30;7.20;;;;;;;27.46;54.80;100335.66;30859058;28;96977;-64
2022/06/29 07:57:24;;;;;;;8.75;6.63;;;;;;;28.14;51.26;100363.53;30856272;28;97116;-66
2022/06/29 08:12:24;;;;;;;10.35;6.57;;;;;;;26.61;51.47;100326.22;30863879;28;96728;-73
2022/06/29 08:27:25;;;;;;;10.27;7.43;;;;;;;24.77;54.16;100275.47;30856366;28;97686;-67
2022/06/29 08:42:25;;;;;;;10.57;8.57;;;;;;;23.53;58.13;100270.78;30850873;28;96931;-70
2022/06/29 08:57:26;;;;;;;13.30;9.98;;;;;;;23.58;60.86;100279.81;30851620;28;96748;-68
2022/06/29 09:12:28;;;;;;;9.68;7.85;;;;;;;23.58;61.00;100312.44;30850605;28;96750;-64
2022/06/29 09:27:28;;;;;;;12.70;8.60;;;;;;;22.98;63.16;100358.38;30848985;28;97250;-65
2022/06/29 09:42:29;;;;;;;10.07;8.52;;;;;;;23.78;63.67;100311.03;30847568;28;96828;-63
2022/06/29 09:57:30;;;;;;;10.20;7.85;;;;;;;25.13;61.97;100284.66;30844818;28;96750;-67
2022/06/29 10:28:18;;;;;;;10.07;8.70;;;;;;;29.62;54.57;100275.44;30835678;28;97129;-71
2022/06/29 10:43:20;;;;;;;13.77;9.13;;;;;;;30.71;49.83;100272.63;30839373;28;98308;-74
2022/06/29 10:58:22;;;;;;;10.07;9.07;;;;;;;31.45;47.26;100228.75;30842036;28;97335;-70
2022/06/29 11:13:24;;;;;;;10.90;8.77;;;;;;;31.51;44.70;100230.28;30858187;28;96853;-76
2022/06/29 11:28:29;;;;;;;12.33;8.97;;;;;;;31.71;44.39;100224.34;30858605;28;96869;-71
2022/06/29 11:43:30;;;;;;;9.17;8.27;;;;;;;33.77;41.52;100208.72;30770771;28;96879;-70
2022/06/29 11:58:30;;;;;;;9.07;7.63;;;;;;;34.60;38.74;100204.81;30744721;28;96756;-66
2022/06/29 12:13:31;;;;;;;11.93;7.65;;;;;;;35.06;37.56;100205.06;30793160;28;96802;-66
2022/06/29 12:28:32;;;;;;;8.67;7.70;;;;;;;34.00;37.81;100201.09;30857687;28;96792;-73
2022/06/29 12:43:32;;;;;;;8.43;7.63;;;;;;;32.66;39.35;100216.94;30857697;28;97109;-73
2022/06/29 12:58:33;;;;;;;8.00;7.20;;;;;;;32.69;39.70;100227.34;30845813;28;97493;-72
2022/06/29 13:13:33;;;;;;;8.02;7.18;;;;;;;33.05;39.27;100193.25;30856120;28;97667;-71
2022/06/29 13:28:34;;;;;;;17.08;7.80;;;;;;;32.48;39.68;100195.94;30856198;28;97151;-69
2022/06/29 13:43:34;;;;;;;8.93;7.10;;;;;;;31.46;41.21;100164.34;30853679;28;96787;-63
2022/06/29 13:58:34;;;;;;;9.50;8.05;;;;;;;30.33;43.35;100167.47;30851083;28;97657;-69
2022/06/29 14:13:35;;;;;;;11.25;8.40;;;;;;;29.67;44.82;100110.66;30851655;28;97489;-64
2022/06/29 14:28:35;;;;;;;8.50;6.63;;;;;;;29.51;45.92;100129.31;30850498;28;96799;-69
2022/06/29 14:43:36;;;;;;;13.52;10.40;;;;;;;29.36;46.46;100132.28;30873131;28;98274;-65
2022/06/29 14:58:36;;;;;;;7.43;6.70;;;;;;;29.19;46.85;100099.88;30890294;28;96941;-70
2022/06/29 15:13:36;;;;;;;8.05;6.70;;;;;;;28.97;47.34;100075.81;30887188;28;117975;-74
2022/06/29 15:28:37;;;;;;;10.50;7.07;;;;;;;28.76;47.58;100069.78;30908415;28;97948;-71
2022/06/29 15:43:37;;;;;;;8.82;6.47;;;;;;;28.78;46.94;100042.91;30891528;28;97668;-69
2022/06/29 15:58:38;;;;;;;10.25;7.20;;;;;;;28.26;47.75;100035.31;30869960;28;97211;-66
2022/06/29 16:13:38;;;;;;;8.52;6.45;;;;;;;27.94;48.40;100033.19;30863729;28;96654;-71
2022/06/29 16:28:38;;;;;;;7.45;6.22;;;;;;;27.97;48.56;100025.22;30855870;28;98082;-70
2022/06/29 16:43:39;;;;;;;6.65;5.70;;;;;;;28.21;47.19;100010.72;30859034;28;97257;-68
2022/06/29 16:58:39;;;;;;;7.90;5.75;;;;;;;27.92;47.98;99981.47;30855562;28;97337;-66
2022/06/29 17:13:40;;;;;;;6.70;6.00;;;;;;;27.58;48.17;99976.09;30848902;28;96993;-72
2022/06/29 17:28:40;;;;;;;6.70;6.05;;;;;;;26.98;50.44;99982.59;30800621;28;96843;-66
2022/06/29 17:43:41;;;;;;;11.23;6.25;;;;;;;26.67;51.33;100001.94;30732812;28;97272;-71
2022/06/29 17:58:41;;;;;;;7.78;6.55;;;;;;;26.83;52.00;100049.13;30732281;28;96823;-68
2022/06/29 18:13:42;;;;;;;6.97;5.88;;;;;;;26.74;51.79;100054.38;30844159;28;97313;-65
2022/06/29 18:28:42;;;;;;;8.93;5.88;;;;;;;26.30;52.41;100025.88;30840702;28;97082;-69
2022/06/29 18:43:42;;;;;;;7.93;6.43;;;;;;;25.84;53.31;99964.03;30836256;28;97090;-65
2022/06/29 18:58:43;;;;;;;8.55;6.47;;;;;;;25.50;54.66;99906.59;30841954;28;97257;-73
2022/06/29 19:13:43;;;;;;;6.60;5.90;;;;;;;25.05;55.41;99859.22;30807181;28;97398;-64
2022/06/29 19:28:43;;;;;;;8.60;6.85;;;;;;;24.50;56.76;99946.88;30856287;28;96762;-72
2022/06/29 19:43:47;;;;;;;8.95;6.75;;;;;;;24.39;57.50;99956.13;30873061;28;96735;-71
2022/06/29 19:58:47;;;;;;;11.53;8.43;;;;;;;24.48;57.63;99932.69;30869919;28;96955;-66
2022/06/29 20:13:48;;;;;;;7.63;6.30;;;;;;;24.10;58.29;99937.53;30865843;28;96726;-71
2022/06/29 20:28:49;;;;;;;7.27;5.97;;;;;;;23.93;58.74;99941.22;30859691;28;97712;-70
2022/06/29 20:59:09;;;;;;;10.50;7.17;;;;;;;23.30;59.70;99957.44;30862711;28;96920;-69
2022/06/29 21:14:09;;;;;;;;;;;;;;;23.03;60.34;99941.16;30860021;28;97308;-66
2022/06/29 21:29:10;;;;;;;11.80;8.43;;;;;;;22.89;61.42;99946.22;30858413;28;96748;-71
2022/06/29 21:44:10;;;;;;;8.70;7.43;;;;;;;23.05;61.51;99928.16;30857843;28;96699;-71
2022/06/29 21:59:11;;;;;;;11.20;7.60;;;;;;;23.30;61.17;99925.63;30855272;28;96973;-72
2022/06/29 22:14:11;;;;;;;13.37;8.63;;;;;;;23.36;60.73;99914.78;30855541;28;97557;-69
2022/06/29 22:29:12;;;;;;;12.35;8.85;;;;;;;22.85;61.12;99924.16;30852870;28;96911;-70
2022/06/29 22:44:12;;;;;;;10.25;9.00;;;;;;;22.72;61.96;99947.13;30854806;28;96654;-70
2022/06/29 22:59:13;;;;;;;9.70;6.17;;;;;;;22.51;63.13;100108.97;30854670;28;114246;-67
2022/06/29 23:14:14;;;;;;;2.30;1.60;;;;;;;21.16;63.96;100107.91;30874543;28;96696;-70
2022/06/29 23:29:14;;;;;;;5.67;2.00;;;;;;;20.59;66.48;100035.56;30872297;28;97255;-72
2022/06/29 23:44:20;;;;;;;6.18;1.90;;;;;;;20.36;68.38;99993.97;30870298;28;97547;-70
2022/06/29 23:59:20;;;;;;;7.67;2.53;;;;;;;20.00;69.97;100006.78;30869610;28;96707;-71
